createdAt,value
2022-08-16T00:00:46.142Z,11.88
2022-08-16T00:04:48.006Z,11.52
2022-08-16T00:08:52.402Z,10.75
2022-08-16T00:12:53.492Z,12.23
2022-08-16T00:17:06.470Z,10.95
2022-08-16T00:21:16.707Z,12.63
2022-08-16T00:25:19.123Z,11.43
2022-08-16T00:29:19.114Z,11.23
2022-08-16T00:33:19.169Z,10.93
2022-08-16T00:37:24.631Z,11.20
2022-08-16T00:41:25.886Z,11.48
2022-08-16T00:45:35.603Z,10.80
2022-08-16T00:49:39.149Z,10.45
2022-08-16T00:53:41.233Z,10.98
2022-08-16T00:57:58.549Z,10.35
2022-08-16T01:02:00.306Z,10.60
2022-08-16T01:06:40.161Z,11.55
2022-08-16T01:10:44.663Z,10.88
2022-08-16T01:14:51.563Z,10.82
2022-08-16T01:18:59.343Z,10.70
2022-08-16T01:23:08.715Z,11.00
2022-08-16T01:31:16.646Z,11.45
2022-08-16T01:35:21.462Z,10.68
2022-08-16T01:39:21.906Z,11.30
2022-08-16T01:43:26.778Z,11.65
2022-08-16T01:47:29.458Z,11.32
2022-08-16T01:51:39.275Z,10.45
2022-08-16T01:55:42.425Z,11.63
2022-08-16T01:59:55.357Z,11.35
2022-08-16T02:03:58.129Z,11.05
2022-08-16T02:07:58.834Z,12.13
2022-08-16T02:12:45.858Z,11.25
2022-08-16T02:16:29.577Z,13.43
2022-08-16T02:20:42.704Z,11.35
2022-08-16T02:24:45.869Z,12.18
2022-08-16T02:28:47.145Z,11.75
2022-08-16T02:32:51.683Z,12.48
2022-08-16T02:36:52.038Z,12.32
2022-08-16T02:40:54.498Z,13.32
2022-08-16T02:44:54.294Z,13.25
2022-08-16T02:48:56.530Z,12.57
2022-08-16T02:53:00.179Z,12.75
2022-08-16T02:56:59.540Z,14.38
2022-08-16T03:00:59.406Z,12.50
2022-08-16T03:05:02.822Z,12.50
2022-08-16T03:09:02.411Z,12.40
2022-08-16T03:13:12.501Z,12.90
2022-08-16T03:17:12.538Z,11.93
2022-08-16T03:21:14.982Z,15.65
2022-08-16T03:25:18.792Z,11.68
2022-08-16T03:29:20.406Z,12.27
2022-08-16T03:33:23.602Z,11.43
2022-08-16T03:37:26.406Z,13.23
2022-08-16T03:41:49.666Z,13.25
2022-08-16T03:45:49.209Z,12.20
2022-08-16T03:49:52.444Z,11.98
2022-08-16T03:54:00.732Z,12.70
2022-08-16T03:58:02.508Z,12.57
2022-08-16T04:02:12.213Z,11.80
2022-08-16T04:06:22.929Z,12.05
2022-08-16T04:10:36.061Z,10.30
2022-08-16T04:14:36.780Z,11.25
2022-08-16T04:18:38.471Z,11.20
2022-08-16T04:22:39.932Z,9.77
2022-08-16T04:26:46.187Z,10.93
2022-08-16T04:30:47.882Z,10.93
2022-08-16T04:34:50.753Z,10.50
2022-08-16T04:38:52.507Z,10.95
2022-08-16T04:42:54.718Z,10.80
2022-08-16T04:47:02.456Z,10.65
2022-08-16T04:51:07.966Z,11.18
2022-08-16T04:55:17.133Z,10.27
2022-08-16T04:59:25.192Z,10.30
2022-08-16T05:03:28.101Z,10.93
2022-08-16T05:07:27.612Z,10.55
2022-08-16T05:11:34.296Z,10.40
2022-08-16T05:15:36.895Z,10.40
2022-08-16T05:19:37.216Z,10.98
2022-08-16T05:23:37.582Z,10.80
2022-08-16T05:27:43.036Z,10.57
2022-08-16T05:31:48.426Z,11.88
2022-08-16T05:35:54.799Z,12.05
2022-08-16T05:39:56.913Z,13.40
2022-08-16T06:08:42.200Z,12.35
2022-08-16T06:25:08.734Z,11.68
2022-08-16T06:29:09.150Z,12.15
2022-08-16T06:33:12.503Z,14.13
2022-08-16T06:37:12.790Z,13.30
2022-08-16T06:41:51.351Z,14.80
2022-08-16T06:46:19.327Z,14.13
2022-08-16T06:50:28.574Z,14.48
2022-08-16T06:54:49.898Z,14.43
2022-08-16T06:58:51.472Z,12.73
2022-08-16T07:02:57.243Z,14.65
2022-08-16T07:06:57.335Z,14.13
2022-08-16T07:11:45.526Z,13.25
2022-08-16T07:15:21.654Z,13.25
2022-08-16T07:20:01.803Z,15.45
2022-08-16T07:23:49.252Z,14.90
2022-08-16T07:28:01.683Z,21.27
2022-08-16T07:32:02.009Z,14.27
2022-08-16T07:36:07.470Z,13.00
2022-08-16T07:40:12.805Z,14.75
2022-08-16T07:44:15.447Z,12.25
2022-08-16T07:48:16.814Z,11.95
2022-08-16T07:52:29.893Z,12.38
2022-08-16T07:56:33.772Z,12.45
2022-08-16T08:00:35.669Z,13.57
2022-08-16T08:04:40.748Z,13.38
2022-08-16T08:08:51.018Z,13.18
2022-08-16T08:12:59.838Z,13.82
2022-08-16T08:17:02.946Z,14.73
2022-08-16T08:21:03.335Z,11.88
2022-08-16T08:25:07.217Z,11.73
2022-08-16T08:29:14.853Z,10.80
2022-08-16T08:33:27.146Z,9.50
2022-08-16T08:37:54.529Z,11.63
2022-08-16T08:42:05.014Z,10.63
2022-08-16T08:46:18.102Z,12.13
2022-08-16T08:50:32.019Z,10.93
2022-08-16T08:54:34.194Z,11.43
2022-08-16T08:58:39.375Z,11.23
2022-08-16T09:02:57.006Z,11.65
2022-08-16T09:07:01.294Z,12.32
2022-08-16T09:11:03.113Z,11.77
2022-08-16T09:15:06.047Z,10.80
2022-08-16T09:23:07.094Z,9.68
2022-08-16T09:27:11.385Z,8.88
2022-08-16T09:31:14.910Z,9.30
2022-08-16T09:35:16.633Z,9.15
2022-08-16T09:39:17.812Z,10.07
2022-08-16T09:43:53.255Z,9.35
2022-08-16T09:47:56.299Z,9.18
2022-08-16T09:51:57.759Z,9.85
2022-08-16T09:55:58.849Z,9.30
2022-08-16T10:00:00.669Z,10.40
2022-08-16T10:04:04.228Z,9.02
2022-08-16T10:08:25.708Z,9.15
2022-08-16T10:12:46.599Z,9.20
2022-08-16T10:17:00.005Z,8.98
2022-08-16T10:21:05.823Z,8.63
2022-08-16T10:27:16.755Z,8.80
2022-08-16T10:29:59.186Z,9.85
2022-08-16T10:34:01.358Z,8.13
2022-08-16T10:38:06.561Z,8.77
2022-08-16T10:42:17.198Z,9.07
2022-08-16T10:46:39.470Z,7.97
2022-08-16T10:50:46.439Z,8.45
2022-08-16T10:59:39.241Z,8.82
2022-08-16T11:03:56.923Z,7.47
2022-08-16T11:07:57.969Z,8.38
2022-08-16T11:12:13.544Z,8.48
2022-08-16T11:16:26.747Z,7.95
2022-08-16T11:20:41.568Z,6.93
2022-08-16T11:24:45.442Z,6.88
2022-08-16T11:29:33.048Z,6.57
2022-08-16T11:33:52.745Z,7.70
2022-08-16T11:42:58.294Z,8.45
2022-08-16T11:47:04.321Z,7.15
2022-08-16T11:51:07.790Z,7.78
2022-08-16T11:55:10.404Z,7.18
2022-08-16T11:59:18.908Z,6.95
2022-08-16T12:03:34.922Z,6.72
2022-08-16T12:07:35.477Z,7.05
2022-08-16T12:11:43.675Z,7.53
2022-08-16T12:16:08.168Z,7.63
2022-08-16T12:21:01.878Z,8.05
2022-08-16T12:25:16.780Z,7.07
2022-08-16T12:29:17.051Z,7.30
2022-08-16T12:33:25.576Z,7.65
2022-08-16T12:37:28.687Z,7.68
2022-08-16T12:41:38.932Z,6.78
2022-08-16T12:45:51.325Z,6.57
2022-08-16T12:49:56.553Z,7.70
2022-08-16T12:54:03.963Z,7.57
2022-08-16T12:58:03.271Z,7.20
2022-08-16T13:02:22.701Z,6.63
2022-08-16T13:06:48.293Z,6.38
2022-08-16T13:10:57.393Z,6.90
2022-08-16T13:15:00.163Z,6.80
2022-08-16T13:19:00.097Z,7.57
2022-08-16T13:23:07.363Z,7.63
2022-08-16T13:27:17.801Z,8.15
2022-08-16T13:31:24.047Z,8.63
2022-08-16T13:35:26.931Z,6.87
2022-08-16T13:39:34.949Z,7.07
2022-08-16T13:43:44.471Z,6.53
2022-08-16T13:48:05.322Z,7.45
2022-08-16T13:52:18.256Z,7.93
2022-08-16T13:56:26.166Z,6.85
2022-08-16T14:00:43.140Z,7.28
2022-08-16T14:04:47.025Z,7.22
2022-08-16T14:09:06.973Z,7.03
2022-08-16T14:13:07.781Z,7.32
2022-08-16T14:17:23.791Z,7.18
2022-08-16T14:21:27.041Z,6.97
2022-08-16T14:25:40.036Z,6.97
2022-08-16T14:29:49.396Z,7.00
2022-08-16T14:34:11.149Z,7.60
2022-08-16T14:38:11.485Z,7.75
2022-08-16T14:42:21.065Z,7.30
2022-08-16T14:46:21.330Z,7.10
2022-08-16T14:50:25.088Z,6.95
2022-08-16T14:54:30.512Z,7.13
2022-08-16T14:58:34.881Z,7.15
2022-08-16T15:03:01.291Z,7.45
2022-08-16T15:07:34.460Z,7.85
2022-08-16T15:11:44.882Z,7.60
2022-08-16T15:15:45.333Z,7.00
2022-08-16T15:20:00.185Z,7.75
2022-08-16T15:24:06.987Z,6.65
2022-08-16T15:28:30.934Z,7.82
2022-08-16T15:32:32.508Z,7.28
2022-08-16T15:36:32.748Z,7.35
2022-08-16T15:40:36.347Z,8.20
2022-08-16T15:44:58.381Z,7.30
2022-08-16T15:49:05.140Z,7.55
2022-08-16T15:53:18.063Z,8.20
2022-08-16T15:57:21.467Z,7.50
2022-08-16T16:01:23.930Z,6.45
2022-08-16T16:05:25.678Z,6.18
2022-08-16T16:09:36.646Z,7.05
2022-08-16T16:13:55.703Z,5.75
2022-08-16T16:17:59.382Z,6.03
2022-08-16T16:22:09.578Z,5.75
2022-08-16T16:26:26.805Z,5.80
2022-08-16T16:30:33.331Z,5.32
2022-08-16T16:34:49.388Z,4.93
2022-08-16T16:38:50.835Z,6.03
2022-08-16T16:42:56.194Z,6.03
2022-08-16T16:46:58.782Z,4.50
2022-08-16T16:51:09.796Z,6.57
2022-08-16T16:55:13.130Z,5.05
2022-08-16T16:59:14.910Z,5.32
2022-08-16T17:03:20.034Z,4.95
2022-08-16T17:07:24.184Z,4.18
2022-08-16T17:11:25.214Z,4.43
2022-08-16T17:15:36.899Z,4.55
2022-08-16T17:19:43.148Z,4.15
2022-08-16T17:23:59.282Z,4.30
2022-08-16T17:28:00.470Z,4.30
2022-08-16T17:32:02.537Z,4.70
2022-08-16T17:36:36.582Z,4.70
2022-08-16T17:40:50.376Z,4.88
2022-08-16T17:44:57.526Z,5.00
2022-08-16T17:48:58.568Z,5.78
2022-08-16T17:53:01.058Z,4.20
2022-08-16T17:57:01.409Z,4.47
2022-08-16T18:01:02.101Z,5.35
2022-08-16T18:05:03.532Z,4.50
2022-08-16T18:09:05.931Z,5.38
2022-08-16T18:13:06.411Z,5.60
2022-08-16T18:17:07.470Z,5.55
2022-08-16T18:21:24.063Z,5.50
2022-08-16T18:25:26.096Z,5.47
2022-08-16T18:29:26.300Z,5.55
2022-08-16T18:33:28.443Z,5.32
2022-08-16T18:37:33.729Z,5.63
2022-08-16T18:41:46.930Z,6.20
2022-08-16T18:45:51.192Z,6.40
2022-08-16T18:49:50.860Z,6.60
2022-08-16T18:53:51.159Z,6.43
2022-08-16T18:57:53.230Z,6.50
2022-08-16T19:01:54.119Z,6.40
2022-08-16T19:06:05.359Z,6.10
2022-08-16T19:10:09.037Z,7.20
2022-08-16T19:14:11.166Z,6.53
2022-08-16T19:18:12.385Z,6.38
2022-08-16T19:22:12.925Z,7.35
2022-08-16T19:26:24.730Z,7.13
2022-08-16T19:30:30.560Z,6.90
2022-08-16T19:34:30.990Z,7.40
2022-08-16T19:38:30.577Z,7.45
2022-08-16T19:42:31.088Z,6.82
2022-08-16T19:46:34.189Z,8.13
2022-08-16T19:50:44.882Z,7.20
2022-08-16T19:54:47.342Z,7.70
2022-08-16T19:59:17.001Z,7.95
2022-08-16T20:03:17.506Z,7.20
2022-08-16T20:07:18.356Z,7.15
2022-08-16T20:11:21.341Z,7.53
2022-08-16T20:15:26.711Z,8.27
2022-08-16T20:19:36.077Z,8.70
2022-08-16T20:23:40.901Z,8.05
2022-08-16T20:27:41.337Z,7.68
2022-08-16T20:31:41.876Z,7.75
2022-08-16T20:35:45.766Z,7.82
2022-08-16T20:39:46.478Z,7.38
2022-08-16T20:43:47.584Z,8.38
2022-08-16T20:47:47.908Z,7.75
2022-08-16T20:51:54.861Z,7.63
2022-08-16T20:55:57.089Z,7.70
2022-08-16T20:59:57.427Z,8.10
2022-08-16T21:03:59.677Z,8.23
2022-08-16T21:08:04.784Z,7.47
2022-08-16T21:12:21.885Z,9.13
2022-08-16T21:16:22.295Z,8.70
2022-08-16T21:20:25.152Z,8.38
2022-08-16T21:24:27.657Z,8.45
2022-08-16T21:28:40.397Z,8.20
2022-08-16T21:32:43.836Z,8.52
2022-08-16T21:36:44.077Z,8.68
2022-08-16T21:40:46.856Z,7.32
2022-08-16T21:44:47.722Z,8.00
2022-08-16T21:48:47.931Z,7.47
2022-08-16T21:52:49.026Z,8.32
2022-08-16T21:56:51.773Z,7.60
2022-08-16T22:00:52.023Z,7.45
2022-08-16T22:04:52.712Z,7.22
2022-08-16T22:08:54.213Z,8.18
2022-08-16T22:12:57.243Z,7.53
2022-08-16T22:16:56.939Z,7.95
2022-08-16T22:20:57.801Z,7.47
2022-08-16T22:24:58.747Z,6.63
2022-08-16T22:29:02.002Z,9.07
2022-08-16T22:33:01.517Z,8.55
2022-08-16T22:37:02.863Z,7.93
2022-08-16T22:41:04.543Z,8.00
2022-08-16T22:45:09.739Z,7.43
2022-08-16T22:49:13.308Z,7.55
2022-08-16T22:53:14.760Z,7.20
2022-08-16T22:57:14.534Z,7.10
2022-08-16T23:01:18.944Z,7.57
2022-08-16T23:05:19.872Z,6.82
2022-08-16T23:09:20.268Z,6.88
2022-08-16T23:13:21.407Z,7.32
2022-08-16T23:17:23.866Z,7.47
2022-08-16T23:21:23.712Z,8.95
2022-08-16T23:25:29.664Z,7.60
2022-08-16T23:29:29.802Z,8.48
2022-08-16T23:33:32.874Z,8.00
2022-08-16T23:37:32.687Z,7.80
2022-08-16T23:41:35.211Z,7.28
2022-08-16T23:45:36.909Z,7.32
2022-08-16T23:50:00.941Z,7.78
2022-08-16T23:54:01.021Z,7.13
2022-08-16T23:58:01.843Z,7.78
